Augusta, Australia
Current Conditions -  °F | °C
As of 3:33 AM on Saturday 29 Nov 2014 (Local Time) from YABA Reporting Station
Overcast Overcast  
Wind Chill: 61°   Ceiling: 1600
Heat Index: 61°   Visibility: 4mi
Dew Point: 61°   Wind: 7mph
Humidity: 100%   Direction: 200°SSW
Pressure: 29.85"   Gusts: NA
Location:  34.32°S, 115.16°E
Report Text: YABA 281933Z AUTO 20006KT 6000 // SCT010 BKN016 OVC026 16/16 Q1011
Loading
Personal Weather Stations






























Interactive Weather Map New forecast layout! Learn more

10-Day Weather Forecast

Advertisements
Track Severe Weather on mobile